sensor_id;sensor_type;location;lat;lon;timestamp;P1;durP1;ratioP1;P2;durP2;ratioP2
8113;SDS011;4099;52.684;9.918;2022-07-30T00:01:09;5.73;;;3.67;;
8113;SDS011;4099;52.684;9.918;2022-07-30T00:06:11;4.90;;;3.30;;
8113;SDS011;4099;52.684;9.918;2022-07-30T00:11:15;4.03;;;3.47;;
8113;SDS011;4099;52.684;9.918;2022-07-30T00:16:18;3.70;;;3.30;;
8113;SDS011;4099;52.684;9.918;2022-07-30T00:21:27;6.60;;;3.27;;
8113;SDS011;4099;52.684;9.918;2022-07-30T00:26:32;3.90;;;3.50;;
8113;SDS011;4099;52.684;9.918;2022-07-30T00:31:36;6.47;;;3.70;;
8113;SDS011;4099;52.684;9.918;2022-07-30T00:36:39;4.27;;;3.50;;
8113;SDS011;4099;52.684;9.918;2022-07-30T00:41:54;3.50;;;3.20;;
8113;SDS011;4099;52.684;9.918;2022-07-30T00:46:57;4.87;;;4.10;;
8113;SDS011;4099;52.684;9.918;2022-07-30T00:52:03;5.23;;;4.00;;
8113;SDS011;4099;52.684;9.918;2022-07-30T00:57:08;3.63;;;3.30;;
8113;SDS011;4099;52.684;9.918;2022-07-30T01:02:10;5.27;;;3.87;;
8113;SDS011;4099;52.684;9.918;2022-07-30T01:07:12;5.73;;;3.57;;
8113;SDS011;4099;52.684;9.918;2022-07-30T01:12:18;4.67;;;3.87;;
8113;SDS011;4099;52.684;9.918;2022-07-30T01:17:24;4.57;;;3.33;;
8113;SDS011;4099;52.684;9.918;2022-07-30T01:22:30;4.60;;;3.90;;
8113;SDS011;4099;52.684;9.918;2022-07-30T01:27:44;5.23;;;4.27;;
8113;SDS011;4099;52.684;9.918;2022-07-30T01:32:51;4.73;;;3.70;;
8113;SDS011;4099;52.684;9.918;2022-07-30T01:37:55;6.37;;;4.13;;
8113;SDS011;4099;52.684;9.918;2022-07-30T01:43:06;5.73;;;4.30;;
8113;SDS011;4099;52.684;9.918;2022-07-30T01:48:10;6.47;;;4.30;;
8113;SDS011;4099;52.684;9.918;2022-07-30T01:53:14;4.97;;;4.40;;
8113;SDS011;4099;52.684;9.918;2022-07-30T01:58:22;6.10;;;4.30;;
8113;SDS011;4099;52.684;9.918;2022-07-30T02:03:28;5.67;;;4.80;;
8113;SDS011;4099;52.684;9.918;2022-07-30T02:08:34;8.00;;;5.07;;
8113;SDS011;4099;52.684;9.918;2022-07-30T02:13:44;4.97;;;4.40;;
8113;SDS011;4099;52.684;9.918;2022-07-30T02:18:51;6.10;;;4.70;;
8113;SDS011;4099;52.684;9.918;2022-07-30T02:24:04;5.43;;;4.27;;
8113;SDS011;4099;52.684;9.918;2022-07-30T02:29:13;5.43;;;4.63;;
8113;SDS011;4099;52.684;9.918;2022-07-30T02:34:20;7.83;;;5.00;;
8113;SDS011;4099;52.684;9.918;2022-07-30T02:39:27;7.03;;;5.10;;
8113;SDS011;4099;52.684;9.918;2022-07-30T02:44:32;7.17;;;5.00;;
8113;SDS011;4099;52.684;9.918;2022-07-30T02:49:41;6.03;;;4.27;;
8113;SDS011;4099;52.684;9.918;2022-07-30T02:54:48;7.53;;;4.60;;
8113;SDS011;4099;52.684;9.918;2022-07-30T02:59:53;6.07;;;5.17;;
8113;SDS011;4099;52.684;9.918;2022-07-30T03:04:59;6.37;;;5.77;;
8113;SDS011;4099;52.684;9.918;2022-07-30T03:10:06;6.03;;;4.20;;
8113;SDS011;4099;52.684;9.918;2022-07-30T03:15:11;8.03;;;5.10;;
8113;SDS011;4099;52.684;9.918;2022-07-30T03:20:16;6.07;;;4.93;;
8113;SDS011;4099;52.684;9.918;2022-07-30T03:25:23;5.13;;;4.17;;
8113;SDS011;4099;52.684;9.918;2022-07-30T03:30:30;5.27;;;4.10;;
8113;SDS011;4099;52.684;9.918;2022-07-30T03:35:37;5.90;;;4.30;;
8113;SDS011;4099;52.684;9.918;2022-07-30T03:40:42;4.70;;;4.30;;
8113;SDS011;4099;52.684;9.918;2022-07-30T03:45:47;4.97;;;4.30;;
8113;SDS011;4099;52.684;9.918;2022-07-30T03:50:57;5.87;;;4.97;;
8113;SDS011;4099;52.684;9.918;2022-07-30T03:56:02;7.63;;;5.30;;
8113;SDS011;4099;52.684;9.918;2022-07-30T04:01:29;8.17;;;5.20;;
8113;SDS011;4099;52.684;9.918;2022-07-30T04:06:40;5.73;;;5.00;;
8113;SDS011;4099;52.684;9.918;2022-07-30T04:11:44;5.87;;;5.13;;
8113;SDS011;4099;52.684;9.918;2022-07-30T04:16:53;7.33;;;5.77;;
8113;SDS011;4099;52.684;9.918;2022-07-30T04:22:04;5.33;;;4.83;;
8113;SDS011;4099;52.684;9.918;2022-07-30T04:27:11;6.67;;;5.20;;
8113;SDS011;4099;52.684;9.918;2022-07-30T04:32:21;6.77;;;5.90;;
8113;SDS011;4099;52.684;9.918;2022-07-30T04:37:51;5.83;;;5.23;;
8113;SDS011;4099;52.684;9.918;2022-07-30T04:42:59;8.73;;;5.93;;
8113;SDS011;4099;52.684;9.918;2022-07-30T04:48:11;7.73;;;6.00;;
8113;SDS011;4099;52.684;9.918;2022-07-30T04:53:37;6.87;;;6.07;;
8113;SDS011;4099;52.684;9.918;2022-07-30T04:58:41;8.90;;;6.80;;
8113;SDS011;4099;52.684;9.918;2022-07-30T05:03:49;7.63;;;6.93;;
8113;SDS011;4099;52.684;9.918;2022-07-30T05:08:57;7.93;;;6.83;;
8113;SDS011;4099;52.684;9.918;2022-07-30T05:14:01;8.37;;;7.57;;
8113;SDS011;4099;52.684;9.918;2022-07-30T05:19:05;11.90;;;7.90;;
8113;SDS011;4099;52.684;9.918;2022-07-30T05:24:13;10.33;;;8.03;;
8113;SDS011;4099;52.684;9.918;2022-07-30T05:29:23;10.70;;;8.90;;
8113;SDS011;4099;52.684;9.918;2022-07-30T05:34:36;9.73;;;8.83;;
8113;SDS011;4099;52.684;9.918;2022-07-30T05:39:40;9.73;;;8.73;;
8113;SDS011;4099;52.684;9.918;2022-07-30T05:45:09;11.23;;;10.13;;
8113;SDS011;4099;52.684;9.918;2022-07-30T05:50:15;12.33;;;10.40;;
8113;SDS011;4099;52.684;9.918;2022-07-30T05:55:18;11.53;;;10.33;;
8113;SDS011;4099;52.684;9.918;2022-07-30T06:00:42;10.80;;;9.70;;
8113;SDS011;4099;52.684;9.918;2022-07-30T06:05:47;10.80;;;9.40;;
8113;SDS011;4099;52.684;9.918;2022-07-30T06:10:50;10.80;;;9.83;;
8113;SDS011;4099;52.684;9.918;2022-07-30T06:15:58;10.60;;;9.67;;
8113;SDS011;4099;52.684;9.918;2022-07-30T06:21:12;9.57;;;8.67;;
8113;SDS011;4099;52.684;9.918;2022-07-30T06:26:29;8.40;;;7.70;;
8113;SDS011;4099;52.684;9.918;2022-07-30T06:31:43;8.43;;;7.60;;
8113;SDS011;4099;52.684;9.918;2022-07-30T06:36:57;8.03;;;7.23;;
8113;SDS011;4099;52.684;9.918;2022-07-30T06:42:12;8.20;;;7.30;;
8113;SDS011;4099;52.684;9.918;2022-07-30T06:47:34;7.43;;;6.80;;
8113;SDS011;4099;52.684;9.918;2022-07-30T06:52:42;7.43;;;6.70;;
8113;SDS011;4099;52.684;9.918;2022-07-30T06:57:50;7.90;;;7.10;;
8113;SDS011;4099;52.684;9.918;2022-07-30T07:03:19;6.97;;;6.37;;
8113;SDS011;4099;52.684;9.918;2022-07-30T07:08:31;8.50;;;7.00;;
8113;SDS011;4099;52.684;9.918;2022-07-30T07:13:39;7.33;;;6.63;;
8113;SDS011;4099;52.684;9.918;2022-07-30T07:18:47;6.80;;;5.93;;
8113;SDS011;4099;52.684;9.918;2022-07-30T07:23:58;6.10;;;5.50;;
8113;SDS011;4099;52.684;9.918;2022-07-30T07:29:20;6.20;;;4.93;;
8113;SDS011;4099;52.684;9.918;2022-07-30T07:34:23;4.33;;;3.93;;
8113;SDS011;4099;52.684;9.918;2022-07-30T07:39:31;4.40;;;4.00;;
8113;SDS011;4099;52.684;9.918;2022-07-30T07:44:38;4.27;;;3.87;;
8113;SDS011;4099;52.684;9.918;2022-07-30T07:49:42;4.10;;;3.80;;
8113;SDS011;4099;52.684;9.918;2022-07-30T07:54:55;4.17;;;3.77;;
8113;SDS011;4099;52.684;9.918;2022-07-30T08:00:05;4.13;;;3.73;;
8113;SDS011;4099;52.684;9.918;2022-07-30T08:05:19;4.43;;;4.00;;
8113;SDS011;4099;52.684;9.918;2022-07-30T08:10:46;4.10;;;3.70;;
8113;SDS011;4099;52.684;9.918;2022-07-30T08:16:15;6.27;;;3.50;;
8113;SDS011;4099;52.684;9.918;2022-07-30T08:21:57;3.70;;;3.40;;
8113;SDS011;4099;52.684;9.918;2022-07-30T08:27:11;3.77;;;3.47;;
8113;SDS011;4099;52.684;9.918;2022-07-30T08:32:27;4.03;;;3.40;;
8113;SDS011;4099;52.684;9.918;2022-07-30T08:37:47;3.37;;;3.07;;
8113;SDS011;4099;52.684;9.918;2022-07-30T08:42:54;3.70;;;3.40;;
8113;SDS011;4099;52.684;9.918;2022-07-30T08:48:10;3.60;;;2.90;;
8113;SDS011;4099;52.684;9.918;2022-07-30T08:53:21;3.17;;;2.87;;
8113;SDS011;4099;52.684;9.918;2022-07-30T08:58:36;3.27;;;2.97;;
8113;SDS011;4099;52.684;9.918;2022-07-30T09:03:52;3.43;;;3.13;;
8113;SDS011;4099;52.684;9.918;2022-07-30T09:09:00;3.23;;;3.03;;
8113;SDS011;4099;52.684;9.918;2022-07-30T09:14:14;3.23;;;2.90;;
8113;SDS011;4099;52.684;9.918;2022-07-30T09:19:27;2.80;;;2.60;;
8113;SDS011;4099;52.684;9.918;2022-07-30T09:24:32;4.03;;;3.00;;
8113;SDS011;4099;52.684;9.918;2022-07-30T09:30:09;2.67;;;2.50;;
8113;SDS011;4099;52.684;9.918;2022-07-30T09:35:32;2.93;;;2.73;;
8113;SDS011;4099;52.684;9.918;2022-07-30T09:40:49;2.70;;;2.50;;
8113;SDS011;4099;52.684;9.918;2022-07-30T09:46:40;3.00;;;2.80;;
8113;SDS011;4099;52.684;9.918;2022-07-30T09:52:04;3.10;;;2.80;;
8113;SDS011;4099;52.684;9.918;2022-07-30T09:57:15;3.40;;;3.10;;
8113;SDS011;4099;52.684;9.918;2022-07-30T10:02:19;3.00;;;2.77;;
8113;SDS011;4099;52.684;9.918;2022-07-30T10:07:59;3.07;;;2.87;;
8113;SDS011;4099;52.684;9.918;2022-07-30T10:13:13;3.30;;;3.03;;
8113;SDS011;4099;52.684;9.918;2022-07-30T10:18:21;3.23;;;3.03;;
8113;SDS011;4099;52.684;9.918;2022-07-30T10:23:45;3.30;;;3.00;;
8113;SDS011;4099;52.684;9.918;2022-07-30T10:29:24;3.27;;;2.97;;
8113;SDS011;4099;52.684;9.918;2022-07-30T10:34:48;3.27;;;3.03;;
8113;SDS011;4099;52.684;9.918;2022-07-30T10:45:24;3.33;;;3.03;;
8113;SDS011;4099;52.684;9.918;2022-07-30T10:50:36;3.50;;;3.30;;
8113;SDS011;4099;52.684;9.918;2022-07-30T10:56:15;3.65;;;3.30;;
8113;SDS011;4099;52.684;9.918;2022-07-30T11:07:28;4.00;;;3.40;;
8113;SDS011;4099;52.684;9.918;2022-07-30T11:18:27;3.30;;;3.00;;
8113;SDS011;4099;52.684;9.918;2022-07-30T11:23:37;3.50;;;3.20;;
8113;SDS011;4099;52.684;9.918;2022-07-30T11:28:48;4.13;;;3.20;;
8113;SDS011;4099;52.684;9.918;2022-07-30T11:45:24;3.22;;;3.03;;
8113;SDS011;4099;52.684;9.918;2022-07-30T11:50:36;3.30;;;3.00;;
8113;SDS011;4099;52.684;9.918;2022-07-30T11:55:42;2.83;;;2.63;;
8113;SDS011;4099;52.684;9.918;2022-07-30T12:01:02;5.65;;;3.20;;
8113;SDS011;4099;52.684;9.918;2022-07-30T12:06:07;3.60;;;2.95;;
8113;SDS011;4099;52.684;9.918;2022-07-30T12:11:13;3.40;;;3.10;;
8113;SDS011;4099;52.684;9.918;2022-07-30T12:16:32;3.03;;;2.83;;
8113;SDS011;4099;52.684;9.918;2022-07-30T12:21:47;3.42;;;3.00;;
8113;SDS011;4099;52.684;9.918;2022-07-30T12:26:51;3.08;;;2.80;;
8113;SDS011;4099;52.684;9.918;2022-07-30T12:32:06;3.50;;;3.20;;
8113;SDS011;4099;52.684;9.918;2022-07-30T12:37:10;3.47;;;3.28;;
8113;SDS011;4099;52.684;9.918;2022-07-30T12:42:16;4.45;;;3.30;;
8113;SDS011;4099;52.684;9.918;2022-07-30T12:47:32;3.65;;;3.33;;
8113;SDS011;4099;52.684;9.918;2022-07-30T12:52:35;3.60;;;3.30;;
8113;SDS011;4099;52.684;9.918;2022-07-30T12:57:50;3.30;;;3.00;;
8113;SDS011;4099;52.684;9.918;2022-07-30T13:03:02;2.95;;;2.63;;
8113;SDS011;4099;52.684;9.918;2022-07-30T13:13:51;3.33;;;2.80;;
8113;SDS011;4099;52.684;9.918;2022-07-30T13:19:04;3.88;;;2.90;;
8113;SDS011;4099;52.684;9.918;2022-07-30T13:24:09;4.60;;;3.20;;
8113;SDS011;4099;52.684;9.918;2022-07-30T13:29:18;5.32;;;4.18;;
8113;SDS011;4099;52.684;9.918;2022-07-30T13:34:24;3.78;;;3.13;;
8113;SDS011;4099;52.684;9.918;2022-07-30T13:39:29;2.97;;;2.78;;
8113;SDS011;4099;52.684;9.918;2022-07-30T13:44:33;2.70;;;2.50;;
8113;SDS011;4099;52.684;9.918;2022-07-30T13:49:41;3.40;;;3.10;;
8113;SDS011;4099;52.684;9.918;2022-07-30T13:54:48;3.10;;;2.90;;
8113;SDS011;4099;52.684;9.918;2022-07-30T14:00:01;3.10;;;2.90;;
8113;SDS011;4099;52.684;9.918;2022-07-30T14:05:13;3.50;;;3.08;;
8113;SDS011;4099;52.684;9.918;2022-07-30T14:10:18;3.45;;;3.25;;
8113;SDS011;4099;52.684;9.918;2022-07-30T14:15:25;3.45;;;3.10;;
8113;SDS011;4099;52.684;9.918;2022-07-30T14:20:45;3.10;;;2.80;;
8113;SDS011;4099;52.684;9.918;2022-07-30T14:25:53;3.00;;;2.80;;
8113;SDS011;4099;52.684;9.918;2022-07-30T14:30:58;2.90;;;2.70;;
8113;SDS011;4099;52.684;9.918;2022-07-30T14:36:13;5.07;;;2.92;;
8113;SDS011;4099;52.684;9.918;2022-07-30T14:41:17;2.78;;;2.58;;
8113;SDS011;4099;52.684;9.918;2022-07-30T14:46:25;2.85;;;2.60;;
8113;SDS011;4099;52.684;9.918;2022-07-30T14:51:50;2.90;;;2.70;;
8113;SDS011;4099;52.684;9.918;2022-07-30T14:56:59;3.28;;;2.95;;
8113;SDS011;4099;52.684;9.918;2022-07-30T15:02:11;2.95;;;2.75;;
8113;SDS011;4099;52.684;9.918;2022-07-30T15:07:29;3.20;;;3.00;;
8113;SDS011;4099;52.684;9.918;2022-07-30T15:12:35;2.92;;;2.72;;
8113;SDS011;4099;52.684;9.918;2022-07-30T15:17:43;3.13;;;2.83;;
8113;SDS011;4099;52.684;9.918;2022-07-30T15:22:55;2.67;;;2.47;;
8113;SDS011;4099;52.684;9.918;2022-07-30T15:28:02;2.42;;;2.22;;
8113;SDS011;4099;52.684;9.918;2022-07-30T15:33:10;2.70;;;2.50;;
8113;SDS011;4099;52.684;9.918;2022-07-30T15:38:16;3.10;;;2.90;;
8113;SDS011;4099;52.684;9.918;2022-07-30T15:43:23;3.60;;;3.30;;
8113;SDS011;4099;52.684;9.918;2022-07-30T15:48:38;3.47;;;3.17;;
8113;SDS011;4099;52.684;9.918;2022-07-30T15:53:48;3.80;;;3.50;;
8113;SDS011;4099;52.684;9.918;2022-07-30T15:59:02;4.03;;;3.70;;
8113;SDS011;4099;52.684;9.918;2022-07-30T16:04:23;5.40;;;3.95;;
8113;SDS011;4099;52.684;9.918;2022-07-30T16:09:36;4.30;;;3.90;;
8113;SDS011;4099;52.684;9.918;2022-07-30T16:14:45;5.13;;;3.60;;
8113;SDS011;4099;52.684;9.918;2022-07-30T16:19:52;4.37;;;3.97;;
8113;SDS011;4099;52.684;9.918;2022-07-30T16:25:06;4.40;;;4.00;;
8113;SDS011;4099;52.684;9.918;2022-07-30T16:30:12;4.40;;;4.00;;
8113;SDS011;4099;52.684;9.918;2022-07-30T16:35:16;4.53;;;4.03;;
8113;SDS011;4099;52.684;9.918;2022-07-30T16:40:32;4.23;;;3.87;;
8113;SDS011;4099;52.684;9.918;2022-07-30T16:45:40;4.60;;;4.13;;
8113;SDS011;4099;52.684;9.918;2022-07-30T16:50:46;4.23;;;3.90;;
8113;SDS011;4099;52.684;9.918;2022-07-30T16:55:53;5.23;;;3.87;;
8113;SDS011;4099;52.684;9.918;2022-07-30T17:01:00;4.80;;;4.37;;
8113;SDS011;4099;52.684;9.918;2022-07-30T17:06:14;5.20;;;4.70;;
8113;SDS011;4099;52.684;9.918;2022-07-30T17:11:24;4.70;;;4.30;;
8113;SDS011;4099;52.684;9.918;2022-07-30T17:17:00;4.77;;;4.20;;
8113;SDS011;4099;52.684;9.918;2022-07-30T17:22:06;5.30;;;4.03;;
8113;SDS011;4099;52.684;9.918;2022-07-30T17:27:19;5.00;;;4.40;;
8113;SDS011;4099;52.684;9.918;2022-07-30T17:37:45;19.57;;;17.47;;
8113;SDS011;4099;52.684;9.918;2022-07-30T17:42:49;16.60;;;15.00;;
8113;SDS011;4099;52.684;9.918;2022-07-30T17:47:51;7.47;;;6.73;;
8113;SDS011;4099;52.684;9.918;2022-07-30T17:52:53;5.83;;;5.00;;
8113;SDS011;4099;52.684;9.918;2022-07-30T17:57:57;5.53;;;3.90;;
8113;SDS011;4099;52.684;9.918;2022-07-30T18:02:59;4.17;;;3.87;;
8113;SDS011;4099;52.684;9.918;2022-07-30T18:08:02;4.70;;;4.30;;
8113;SDS011;4099;52.684;9.918;2022-07-30T18:13:06;4.30;;;3.90;;
8113;SDS011;4099;52.684;9.918;2022-07-30T18:18:12;4.87;;;4.47;;
8113;SDS011;4099;52.684;9.918;2022-07-30T18:23:15;4.80;;;4.40;;
8113;SDS011;4099;52.684;9.918;2022-07-30T18:28:19;5.93;;;4.70;;
8113;SDS011;4099;52.684;9.918;2022-07-30T18:33:22;4.57;;;4.03;;
8113;SDS011;4099;52.684;9.918;2022-07-30T18:38:24;5.50;;;4.17;;
8113;SDS011;4099;52.684;9.918;2022-07-30T18:43:28;4.23;;;3.87;;
8113;SDS011;4099;52.684;9.918;2022-07-30T18:48:31;4.63;;;4.23;;
8113;SDS011;4099;52.684;9.918;2022-07-30T18:53:33;6.57;;;4.27;;
8113;SDS011;4099;52.684;9.918;2022-07-30T18:58:37;5.33;;;4.83;;
8113;SDS011;4099;52.684;9.918;2022-07-30T19:03:39;4.80;;;4.40;;
8113;SDS011;4099;52.684;9.918;2022-07-30T19:08:42;5.30;;;4.80;;
8113;SDS011;4099;52.684;9.918;2022-07-30T19:13:46;4.87;;;4.50;;
8113;SDS011;4099;52.684;9.918;2022-07-30T19:18:48;5.00;;;4.60;;
8113;SDS011;4099;52.684;9.918;2022-07-30T19:23:51;4.80;;;4.40;;
8113;SDS011;4099;52.684;9.918;2022-07-30T19:28:55;5.53;;;4.80;;
8113;SDS011;4099;52.684;9.918;2022-07-30T19:33:57;4.97;;;4.53;;
8113;SDS011;4099;52.684;9.918;2022-07-30T19:38:59;4.63;;;4.23;;
8113;SDS011;4099;52.684;9.918;2022-07-30T19:44:03;5.43;;;4.57;;
8113;SDS011;4099;52.684;9.918;2022-07-30T19:49:06;5.30;;;4.80;;
8113;SDS011;4099;52.684;9.918;2022-07-30T19:54:08;5.50;;;5.00;;
8113;SDS011;4099;52.684;9.918;2022-07-30T19:59:12;5.50;;;4.90;;
8113;SDS011;4099;52.684;9.918;2022-07-30T20:04:14;6.00;;;5.40;;
8113;SDS011;4099;52.684;9.918;2022-07-30T20:09:17;6.33;;;5.70;;
8113;SDS011;4099;52.684;9.918;2022-07-30T20:14:21;7.70;;;7.07;;
8113;SDS011;4099;52.684;9.918;2022-07-30T20:19:23;8.43;;;7.57;;
8113;SDS011;4099;52.684;9.918;2022-07-30T20:24:25;9.00;;;8.10;;
8113;SDS011;4099;52.684;9.918;2022-07-30T20:29:29;9.10;;;8.23;;
8113;SDS011;4099;52.684;9.918;2022-07-30T20:34:31;10.10;;;9.00;;
8113;SDS011;4099;52.684;9.918;2022-07-30T20:39:34;9.43;;;8.53;;
8113;SDS011;4099;52.684;9.918;2022-07-30T20:44:40;9.70;;;8.57;;
8113;SDS011;4099;52.684;9.918;2022-07-30T20:49:43;8.37;;;7.67;;
8113;SDS011;4099;52.684;9.918;2022-07-30T20:54:45;7.43;;;6.80;;
8113;SDS011;4099;52.684;9.918;2022-07-30T20:59:49;9.30;;;7.20;;
8113;SDS011;4099;52.684;9.918;2022-07-30T21:04:51;6.77;;;6.13;;
8113;SDS011;4099;52.684;9.918;2022-07-30T21:09:54;5.87;;;5.30;;
8113;SDS011;4099;52.684;9.918;2022-07-30T21:14:58;6.73;;;6.10;;
8113;SDS011;4099;52.684;9.918;2022-07-30T21:20:00;5.90;;;5.50;;
8113;SDS011;4099;52.684;9.918;2022-07-30T21:25:03;6.63;;;6.03;;
8113;SDS011;4099;52.684;9.918;2022-07-30T21:30:09;6.50;;;5.90;;
8113;SDS011;4099;52.684;9.918;2022-07-30T21:35:12;6.83;;;6.20;;
8113;SDS011;4099;52.684;9.918;2022-07-30T21:40:14;6.70;;;6.20;;
8113;SDS011;4099;52.684;9.918;2022-07-30T21:45:19;6.67;;;6.17;;
8113;SDS011;4099;52.684;9.918;2022-07-30T21:50:22;7.60;;;6.10;;
8113;SDS011;4099;52.684;9.918;2022-07-30T21:55:24;6.50;;;5.90;;
8113;SDS011;4099;52.684;9.918;2022-07-30T22:00:38;6.40;;;5.90;;
8113;SDS011;4099;52.684;9.918;2022-07-30T22:05:44;5.80;;;5.30;;
8113;SDS011;4099;52.684;9.918;2022-07-30T22:10:46;6.27;;;5.77;;
8113;SDS011;4099;52.684;9.918;2022-07-30T22:15:50;5.70;;;5.30;;
8113;SDS011;4099;52.684;9.918;2022-07-30T22:20:53;6.57;;;6.07;;
8113;SDS011;4099;52.684;9.918;2022-07-30T22:25:56;6.87;;;6.30;;
8113;SDS011;4099;52.684;9.918;2022-07-30T22:31:13;6.93;;;6.33;;
8113;SDS011;4099;52.684;9.918;2022-07-30T22:36:16;7.27;;;6.43;;
8113;SDS011;4099;52.684;9.918;2022-07-30T22:41:18;6.80;;;6.20;;
8113;SDS011;4099;52.684;9.918;2022-07-30T22:46:22;7.80;;;7.00;;
8113;SDS011;4099;52.684;9.918;2022-07-30T22:51:25;7.90;;;7.27;;
8113;SDS011;4099;52.684;9.918;2022-07-30T22:56:30;8.00;;;7.40;;
8113;SDS011;4099;52.684;9.918;2022-07-30T23:01:34;7.77;;;7.07;;
8113;SDS011;4099;52.684;9.918;2022-07-30T23:06:44;7.33;;;6.77;;
8113;SDS011;4099;52.684;9.918;2022-07-30T23:11:49;7.63;;;6.93;;
8113;SDS011;4099;52.684;9.918;2022-07-30T23:17:00;7.73;;;6.93;;
8113;SDS011;4099;52.684;9.918;2022-07-30T23:22:12;8.27;;;7.57;;
8113;SDS011;4099;52.684;9.918;2022-07-30T23:27:17;8.83;;;7.97;;
8113;SDS011;4099;52.684;9.918;2022-07-30T23:32:23;9.17;;;8.37;;
8113;SDS011;4099;52.684;9.918;2022-07-30T23:37:26;9.80;;;8.73;;
8113;SDS011;4099;52.684;9.918;2022-07-30T23:42:30;9.43;;;8.67;;
8113;SDS011;4099;52.684;9.918;2022-07-30T23:47:34;8.80;;;8.10;;
8113;SDS011;4099;52.684;9.918;2022-07-30T23:52:42;9.30;;;8.50;;
8113;SDS011;4099;52.684;9.918;2022-07-30T23:57:45;11.10;;;8.87;;
